sensor_id;sensor_type;location;lat;lon;timestamp;P1;durP1;ratioP1;P2;durP2;ratioP2
11191;SDS011;5652;48.406;10.820;2023-08-30T00:01:24;18.40;;;16.48;;
11191;SDS011;5652;48.406;10.820;2023-08-30T00:03:52;18.10;;;16.20;;
11191;SDS011;5652;48.406;10.820;2023-08-30T00:06:21;18.47;;;16.57;;
11191;SDS011;5652;48.406;10.820;2023-08-30T00:08:48;18.98;;;17.08;;
11191;SDS011;5652;48.406;10.820;2023-08-30T00:11:15;19.02;;;16.77;;
11191;SDS011;5652;48.406;10.820;2023-08-30T00:13:43;18.57;;;16.63;;
11191;SDS011;5652;48.406;10.820;2023-08-30T00:16:10;18.67;;;16.75;;
11191;SDS011;5652;48.406;10.820;2023-08-30T00:18:38;18.42;;;16.42;;
11191;SDS011;5652;48.406;10.820;2023-08-30T00:21:05;19.33;;;17.33;;
11191;SDS011;5652;48.406;10.820;2023-08-30T00:23:33;19.10;;;16.83;;
11191;SDS011;5652;48.406;10.820;2023-08-30T00:26:00;18.35;;;16.40;;
11191;SDS011;5652;48.406;10.820;2023-08-30T00:28:27;18.90;;;16.55;;
11191;SDS011;5652;48.406;10.820;2023-08-30T00:30:55;18.63;;;16.73;;
11191;SDS011;5652;48.406;10.820;2023-08-30T00:33:22;17.70;;;15.80;;
11191;SDS011;5652;48.406;10.820;2023-08-30T00:35:55;19.10;;;17.15;;
11191;SDS011;5652;48.406;10.820;2023-08-30T00:38:22;19.48;;;17.40;;
11191;SDS011;5652;48.406;10.820;2023-08-30T00:40:51;18.73;;;16.73;;
11191;SDS011;5652;48.406;10.820;2023-08-30T00:43:18;19.10;;;17.15;;
11191;SDS011;5652;48.406;10.820;2023-08-30T00:45:45;18.90;;;16.90;;
11191;SDS011;5652;48.406;10.820;2023-08-30T00:48:13;17.58;;;15.73;;
11191;SDS011;5652;48.406;10.820;2023-08-30T00:50:41;19.45;;;17.50;;
11191;SDS011;5652;48.406;10.820;2023-08-30T00:53:09;18.65;;;16.75;;
11191;SDS011;5652;48.406;10.820;2023-08-30T00:55:37;19.00;;;17.10;;
11191;SDS011;5652;48.406;10.820;2023-08-30T00:58:06;19.77;;;17.67;;
11191;SDS011;5652;48.406;10.820;2023-08-30T01:00:34;20.63;;;18.45;;
11191;SDS011;5652;48.406;10.820;2023-08-30T01:03:01;21.90;;;19.60;;
11191;SDS011;5652;48.406;10.820;2023-08-30T01:05:28;20.70;;;18.57;;
11191;SDS011;5652;48.406;10.820;2023-08-30T01:07:56;21.40;;;19.10;;
11191;SDS011;5652;48.406;10.820;2023-08-30T01:10:25;21.50;;;18.83;;
11191;SDS011;5652;48.406;10.820;2023-08-30T01:12:56;21.05;;;18.75;;
11191;SDS011;5652;48.406;10.820;2023-08-30T01:15:29;21.42;;;19.17;;
11191;SDS011;5652;48.406;10.820;2023-08-30T01:17:57;21.27;;;18.98;;
11191;SDS011;5652;48.406;10.820;2023-08-30T01:20:25;20.42;;;18.27;;
11191;SDS011;5652;48.406;10.820;2023-08-30T01:22:55;21.02;;;18.83;;
11191;SDS011;5652;48.406;10.820;2023-08-30T01:25:27;21.05;;;18.15;;
11191;SDS011;5652;48.406;10.820;2023-08-30T01:27:58;21.38;;;19.10;;
11191;SDS011;5652;48.406;10.820;2023-08-30T01:30:28;22.47;;;19.13;;
11191;SDS011;5652;48.406;10.820;2023-08-30T01:33:04;22.15;;;19.75;;
11191;SDS011;5652;48.406;10.820;2023-08-30T01:35:32;21.10;;;18.90;;
11191;SDS011;5652;48.406;10.820;2023-08-30T01:38:02;21.58;;;19.27;;
11191;SDS011;5652;48.406;10.820;2023-08-30T01:40:32;21.83;;;19.55;;
11191;SDS011;5652;48.406;10.820;2023-08-30T01:43:02;21.77;;;19.48;;
11191;SDS011;5652;48.406;10.820;2023-08-30T01:45:30;21.52;;;18.83;;
11191;SDS011;5652;48.406;10.820;2023-08-30T01:47:59;20.10;;;17.90;;
11191;SDS011;5652;48.406;10.820;2023-08-30T01:50:26;20.58;;;18.15;;
11191;SDS011;5652;48.406;10.820;2023-08-30T01:52:54;20.67;;;18.48;;
11191;SDS011;5652;48.406;10.820;2023-08-30T01:55:22;20.45;;;18.30;;
11191;SDS011;5652;48.406;10.820;2023-08-30T01:57:50;20.63;;;18.52;;
11191;SDS011;5652;48.406;10.820;2023-08-30T02:00:18;20.50;;;18.30;;
11191;SDS011;5652;48.406;10.820;2023-08-30T02:02:46;20.63;;;18.30;;
11191;SDS011;5652;48.406;10.820;2023-08-30T02:05:13;20.38;;;18.05;;
11191;SDS011;5652;48.406;10.820;2023-08-30T02:07:43;21.80;;;19.30;;
11191;SDS011;5652;48.406;10.820;2023-08-30T02:10:14;19.80;;;17.80;;
11191;SDS011;5652;48.406;10.820;2023-08-30T02:12:44;20.60;;;18.43;;
11191;SDS011;5652;48.406;10.820;2023-08-30T02:15:13;20.55;;;18.30;;
11191;SDS011;5652;48.406;10.820;2023-08-30T02:17:42;20.67;;;18.43;;
11191;SDS011;5652;48.406;10.820;2023-08-30T02:20:10;20.27;;;17.80;;
11191;SDS011;5652;48.406;10.820;2023-08-30T02:22:37;20.27;;;17.90;;
11191;SDS011;5652;48.406;10.820;2023-08-30T02:25:05;21.52;;;18.33;;
11191;SDS011;5652;48.406;10.820;2023-08-30T02:27:33;21.33;;;18.17;;
11191;SDS011;5652;48.406;10.820;2023-08-30T02:30:00;19.63;;;17.52;;
11191;SDS011;5652;48.406;10.820;2023-08-30T02:32:28;20.45;;;18.23;;
11191;SDS011;5652;48.406;10.820;2023-08-30T02:35:00;19.75;;;17.52;;
11191;SDS011;5652;48.406;10.820;2023-08-30T02:37:27;19.80;;;17.50;;
11191;SDS011;5652;48.406;10.820;2023-08-30T02:39:54;19.67;;;17.67;;
11191;SDS011;5652;48.406;10.820;2023-08-30T02:42:21;19.33;;;17.23;;
11191;SDS011;5652;48.406;10.820;2023-08-30T02:44:49;19.08;;;17.17;;
11191;SDS011;5652;48.406;10.820;2023-08-30T02:47:17;19.40;;;17.30;;
11191;SDS011;5652;48.406;10.820;2023-08-30T02:49:44;20.48;;;17.40;;
11191;SDS011;5652;48.406;10.820;2023-08-30T02:52:13;19.80;;;17.70;;
11191;SDS011;5652;48.406;10.820;2023-08-30T02:54:40;20.15;;;17.95;;
11191;SDS011;5652;48.406;10.820;2023-08-30T02:57:08;21.58;;;18.83;;
11191;SDS011;5652;48.406;10.820;2023-08-30T02:59:35;20.17;;;17.50;;
11191;SDS011;5652;48.406;10.820;2023-08-30T03:02:02;20.33;;;17.75;;
11191;SDS011;5652;48.406;10.820;2023-08-30T03:04:29;20.83;;;18.38;;
11191;SDS011;5652;48.406;10.820;2023-08-30T03:06:56;21.15;;;18.10;;
11191;SDS011;5652;48.406;10.820;2023-08-30T03:09:25;19.65;;;17.55;;
11191;SDS011;5652;48.406;10.820;2023-08-30T03:11:53;19.33;;;17.33;;
11191;SDS011;5652;48.406;10.820;2023-08-30T03:14:20;20.50;;;17.63;;
11191;SDS011;5652;48.406;10.820;2023-08-30T03:16:47;20.00;;;17.67;;
11191;SDS011;5652;48.406;10.820;2023-08-30T03:19:14;20.88;;;18.13;;
11191;SDS011;5652;48.406;10.820;2023-08-30T03:21:42;19.10;;;17.10;;
11191;SDS011;5652;48.406;10.820;2023-08-30T03:24:09;20.38;;;18.15;;
11191;SDS011;5652;48.406;10.820;2023-08-30T03:26:42;20.70;;;18.10;;
11191;SDS011;5652;48.406;10.820;2023-08-30T03:29:09;21.38;;;17.80;;
11191;SDS011;5652;48.406;10.820;2023-08-30T03:31:36;20.42;;;18.23;;
11191;SDS011;5652;48.406;10.820;2023-08-30T03:34:03;22.52;;;18.52;;
11191;SDS011;5652;48.406;10.820;2023-08-30T03:36:30;21.83;;;18.35;;
11191;SDS011;5652;48.406;10.820;2023-08-30T03:38:58;22.38;;;18.70;;
11191;SDS011;5652;48.406;10.820;2023-08-30T03:41:25;23.33;;;18.47;;
11191;SDS011;5652;48.406;10.820;2023-08-30T03:43:53;21.33;;;17.73;;
11191;SDS011;5652;48.406;10.820;2023-08-30T03:46:20;22.38;;;18.42;;
11191;SDS011;5652;48.406;10.820;2023-08-30T03:48:47;22.60;;;18.80;;
11191;SDS011;5652;48.406;10.820;2023-08-30T03:51:15;23.55;;;19.48;;
11191;SDS011;5652;48.406;10.820;2023-08-30T03:53:42;23.80;;;19.85;;
11191;SDS011;5652;48.406;10.820;2023-08-30T03:56:09;24.17;;;19.80;;
11191;SDS011;5652;48.406;10.820;2023-08-30T03:58:36;23.30;;;19.45;;
11191;SDS011;5652;48.406;10.820;2023-08-30T04:01:05;23.45;;;19.67;;
11191;SDS011;5652;48.406;10.820;2023-08-30T04:03:33;24.08;;;20.20;;
11191;SDS011;5652;48.406;10.820;2023-08-30T04:06:00;24.58;;;19.77;;
11191;SDS011;5652;48.406;10.820;2023-08-30T04:08:27;24.43;;;19.50;;
11191;SDS011;5652;48.406;10.820;2023-08-30T04:10:54;25.08;;;20.05;;
11191;SDS011;5652;48.406;10.820;2023-08-30T04:13:21;23.13;;;19.13;;
11191;SDS011;5652;48.406;10.820;2023-08-30T04:15:49;22.52;;;18.77;;
11191;SDS011;5652;48.406;10.820;2023-08-30T04:18:17;22.33;;;18.50;;
11191;SDS011;5652;48.406;10.820;2023-08-30T04:20:45;21.48;;;18.48;;
11191;SDS011;5652;48.406;10.820;2023-08-30T04:23:12;21.20;;;18.33;;
11191;SDS011;5652;48.406;10.820;2023-08-30T04:25:40;20.90;;;18.10;;
11191;SDS011;5652;48.406;10.820;2023-08-30T04:28:08;22.05;;;18.13;;
11191;SDS011;5652;48.406;10.820;2023-08-30T04:30:35;21.92;;;18.42;;
11191;SDS011;5652;48.406;10.820;2023-08-30T04:33:03;21.05;;;18.23;;
11191;SDS011;5652;48.406;10.820;2023-08-30T04:35:32;20.37;;;17.90;;
11191;SDS011;5652;48.406;10.820;2023-08-30T04:38:00;21.07;;;18.30;;
11191;SDS011;5652;48.406;10.820;2023-08-30T04:40:28;20.63;;;18.42;;
11191;SDS011;5652;48.406;10.820;2023-08-30T04:42:56;20.42;;;18.05;;
11191;SDS011;5652;48.406;10.820;2023-08-30T04:45:23;20.70;;;18.10;;
11191;SDS011;5652;48.406;10.820;2023-08-30T04:47:50;19.95;;;17.65;;
11191;SDS011;5652;48.406;10.820;2023-08-30T04:50:18;19.57;;;17.47;;
11191;SDS011;5652;48.406;10.820;2023-08-30T04:52:46;19.88;;;17.77;;
11191;SDS011;5652;48.406;10.820;2023-08-30T04:55:13;19.75;;;16.90;;
11191;SDS011;5652;48.406;10.820;2023-08-30T04:57:41;20.48;;;17.77;;
11191;SDS011;5652;48.406;10.820;2023-08-30T05:00:10;22.53;;;18.77;;
11191;SDS011;5652;48.406;10.820;2023-08-30T05:02:37;20.65;;;18.08;;
11191;SDS011;5652;48.406;10.820;2023-08-30T05:05:06;21.13;;;18.10;;
11191;SDS011;5652;48.406;10.820;2023-08-30T05:07:33;20.75;;;18.52;;
11191;SDS011;5652;48.406;10.820;2023-08-30T05:10:02;20.48;;;18.27;;
11191;SDS011;5652;48.406;10.820;2023-08-30T05:12:29;20.67;;;17.73;;
11191;SDS011;5652;48.406;10.820;2023-08-30T05:14:56;21.55;;;17.10;;
11191;SDS011;5652;48.406;10.820;2023-08-30T05:17:23;20.20;;;17.08;;
11191;SDS011;5652;48.406;10.820;2023-08-30T05:19:53;19.85;;;17.70;;
11191;SDS011;5652;48.406;10.820;2023-08-30T05:22:20;19.35;;;16.92;;
11191;SDS011;5652;48.406;10.820;2023-08-30T05:24:47;19.65;;;17.55;;
11191;SDS011;5652;48.406;10.820;2023-08-30T05:27:16;20.70;;;17.30;;
11191;SDS011;5652;48.406;10.820;2023-08-30T05:29:43;19.98;;;17.33;;
11191;SDS011;5652;48.406;10.820;2023-08-30T05:32:10;19.95;;;17.25;;
11191;SDS011;5652;48.406;10.820;2023-08-30T05:34:37;18.60;;;16.65;;
11191;SDS011;5652;48.406;10.820;2023-08-30T05:37:04;18.90;;;16.67;;
11191;SDS011;5652;48.406;10.820;2023-08-30T05:39:32;19.45;;;17.33;;
11191;SDS011;5652;48.406;10.820;2023-08-30T05:41:59;19.00;;;16.77;;
11191;SDS011;5652;48.406;10.820;2023-08-30T05:44:27;19.77;;;17.23;;
11191;SDS011;5652;48.406;10.820;2023-08-30T05:46:54;18.73;;;16.73;;
11191;SDS011;5652;48.406;10.820;2023-08-30T05:49:22;18.00;;;16.05;;
11191;SDS011;5652;48.406;10.820;2023-08-30T05:51:49;18.00;;;16.15;;
11191;SDS011;5652;48.406;10.820;2023-08-30T05:54:16;18.17;;;16.27;;
11191;SDS011;5652;48.406;10.820;2023-08-30T05:56:43;18.35;;;16.38;;
11191;SDS011;5652;48.406;10.820;2023-08-30T05:59:10;18.30;;;15.93;;
11191;SDS011;5652;48.406;10.820;2023-08-30T06:01:39;16.45;;;14.85;;
11191;SDS011;5652;48.406;10.820;2023-08-30T06:04:06;16.30;;;14.60;;
11191;SDS011;5652;48.406;10.820;2023-08-30T06:06:33;16.88;;;15.18;;
11191;SDS011;5652;48.406;10.820;2023-08-30T06:09:00;16.95;;;15.25;;
11191;SDS011;5652;48.406;10.820;2023-08-30T06:11:28;16.90;;;15.20;;
11191;SDS011;5652;48.406;10.820;2023-08-30T06:13:55;15.77;;;14.18;;
11191;SDS011;5652;48.406;10.820;2023-08-30T06:16:24;15.98;;;14.38;;
11191;SDS011;5652;48.406;10.820;2023-08-30T06:18:52;15.30;;;13.80;;
11191;SDS011;5652;48.406;10.820;2023-08-30T06:21:19;15.77;;;14.17;;
11191;SDS011;5652;48.406;10.820;2023-08-30T06:23:47;14.85;;;13.35;;
11191;SDS011;5652;48.406;10.820;2023-08-30T06:26:15;14.87;;;13.47;;
11191;SDS011;5652;48.406;10.820;2023-08-30T06:28:42;14.48;;;13.07;;
11191;SDS011;5652;48.406;10.820;2023-08-30T06:31:09;15.00;;;13.50;;
11191;SDS011;5652;48.406;10.820;2023-08-30T06:33:37;14.80;;;13.27;;
11191;SDS011;5652;48.406;10.820;2023-08-30T06:36:06;14.63;;;13.18;;
11191;SDS011;5652;48.406;10.820;2023-08-30T06:38:33;14.07;;;12.77;;
11191;SDS011;5652;48.406;10.820;2023-08-30T06:41:00;14.57;;;13.07;;
11191;SDS011;5652;48.406;10.820;2023-08-30T06:43:27;14.65;;;13.15;;
11191;SDS011;5652;48.406;10.820;2023-08-30T06:45:57;14.52;;;13.02;;
11191;SDS011;5652;48.406;10.820;2023-08-30T06:48:24;14.45;;;13.05;;
11191;SDS011;5652;48.406;10.820;2023-08-30T06:50:51;14.38;;;12.88;;
11191;SDS011;5652;48.406;10.820;2023-08-30T06:53:20;13.20;;;11.80;;
11191;SDS011;5652;48.406;10.820;2023-08-30T06:55:55;13.63;;;12.33;;
11191;SDS011;5652;48.406;10.820;2023-08-30T06:58:23;13.82;;;12.43;;
11191;SDS011;5652;48.406;10.820;2023-08-30T07:00:50;13.45;;;12.15;;
11191;SDS011;5652;48.406;10.820;2023-08-30T07:03:17;13.73;;;12.43;;
11191;SDS011;5652;48.406;10.820;2023-08-30T07:05:57;13.82;;;12.45;;
11191;SDS011;5652;48.406;10.820;2023-08-30T07:08:25;13.20;;;11.90;;
11191;SDS011;5652;48.406;10.820;2023-08-30T07:10:52;13.50;;;12.20;;
11191;SDS011;5652;48.406;10.820;2023-08-30T07:13:20;12.60;;;11.37;;
11191;SDS011;5652;48.406;10.820;2023-08-30T07:15:47;12.85;;;11.55;;
11191;SDS011;5652;48.406;10.820;2023-08-30T07:18:14;12.88;;;11.52;;
11191;SDS011;5652;48.406;10.820;2023-08-30T07:20:41;12.48;;;11.27;;
11191;SDS011;5652;48.406;10.820;2023-08-30T07:23:09;10.77;;;9.77;;
11191;SDS011;5652;48.406;10.820;2023-08-30T07:25:39;10.93;;;9.90;;
11191;SDS011;5652;48.406;10.820;2023-08-30T07:28:07;11.15;;;10.05;;
11191;SDS011;5652;48.406;10.820;2023-08-30T07:30:35;10.57;;;9.57;;
11191;SDS011;5652;48.406;10.820;2023-08-30T07:33:03;10.40;;;9.00;;
11191;SDS011;5652;48.406;10.820;2023-08-30T07:35:30;10.77;;;9.00;;
11191;SDS011;5652;48.406;10.820;2023-08-30T07:37:57;8.05;;;7.25;;
11191;SDS011;5652;48.406;10.820;2023-08-30T07:40:24;7.70;;;6.85;;
11191;SDS011;5652;48.406;10.820;2023-08-30T07:42:55;7.50;;;6.80;;
11191;SDS011;5652;48.406;10.820;2023-08-30T07:45:22;6.75;;;6.15;;
11191;SDS011;5652;48.406;10.820;2023-08-30T07:47:49;7.20;;;6.50;;
11191;SDS011;5652;48.406;10.820;2023-08-30T07:50:16;7.32;;;6.53;;
11191;SDS011;5652;48.406;10.820;2023-08-30T07:52:44;7.80;;;7.00;;
11191;SDS011;5652;48.406;10.820;2023-08-30T07:55:12;7.30;;;6.60;;
11191;SDS011;5652;48.406;10.820;2023-08-30T07:57:40;6.85;;;6.20;;
11191;SDS011;5652;48.406;10.820;2023-08-30T08:00:09;7.65;;;6.43;;
11191;SDS011;5652;48.406;10.820;2023-08-30T08:02:37;6.97;;;6.28;;
11191;SDS011;5652;48.406;10.820;2023-08-30T08:05:04;7.53;;;6.65;;
11191;SDS011;5652;48.406;10.820;2023-08-30T08:07:31;6.93;;;6.22;;
11191;SDS011;5652;48.406;10.820;2023-08-30T08:09:58;7.27;;;6.57;;
11191;SDS011;5652;48.406;10.820;2023-08-30T08:12:26;7.15;;;6.45;;
11191;SDS011;5652;48.406;10.820;2023-08-30T08:14:53;7.00;;;6.30;;
11191;SDS011;5652;48.406;10.820;2023-08-30T08:17:22;9.57;;;6.65;;
11191;SDS011;5652;48.406;10.820;2023-08-30T08:19:49;7.72;;;6.93;;
11191;SDS011;5652;48.406;10.820;2023-08-30T08:22:16;7.85;;;7.05;;
11191;SDS011;5652;48.406;10.820;2023-08-30T08:24:43;7.75;;;6.95;;
11191;SDS011;5652;48.406;10.820;2023-08-30T08:27:11;8.13;;;7.32;;
11191;SDS011;5652;48.406;10.820;2023-08-30T08:29:39;7.80;;;7.10;;
11191;SDS011;5652;48.406;10.820;2023-08-30T08:32:06;7.50;;;6.68;;
11191;SDS011;5652;48.406;10.820;2023-08-30T08:34:35;7.75;;;6.53;;
11191;SDS011;5652;48.406;10.820;2023-08-30T08:37:15;7.30;;;6.13;;
11191;SDS011;5652;48.406;10.820;2023-08-30T08:39:42;7.25;;;5.95;;
11191;SDS011;5652;48.406;10.820;2023-08-30T08:42:11;6.53;;;5.68;;
11191;SDS011;5652;48.406;10.820;2023-08-30T08:44:38;5.90;;;5.30;;
11191;SDS011;5652;48.406;10.820;2023-08-30T08:47:11;5.15;;;4.65;;
11191;SDS011;5652;48.406;10.820;2023-08-30T08:49:41;6.65;;;4.45;;
11191;SDS011;5652;48.406;10.820;2023-08-30T08:52:08;6.03;;;4.82;;
11191;SDS011;5652;48.406;10.820;2023-08-30T08:54:36;5.18;;;4.35;;
11191;SDS011;5652;48.406;10.820;2023-08-30T08:57:04;6.13;;;4.60;;
11191;SDS011;5652;48.406;10.820;2023-08-30T08:59:32;5.10;;;4.60;;
11191;SDS011;5652;48.406;10.820;2023-08-30T09:01:59;4.68;;;4.22;;
11191;SDS011;5652;48.406;10.820;2023-08-30T09:04:27;4.78;;;4.35;;
11191;SDS011;5652;48.406;10.820;2023-08-30T09:06:59;4.88;;;4.38;;
11191;SDS011;5652;48.406;10.820;2023-08-30T09:09:26;5.13;;;4.60;;
11191;SDS011;5652;48.406;10.820;2023-08-30T09:11:53;4.93;;;4.40;;
11191;SDS011;5652;48.406;10.820;2023-08-30T09:14:20;4.93;;;4.32;;
11191;SDS011;5652;48.406;10.820;2023-08-30T09:16:54;5.07;;;4.57;;
11191;SDS011;5652;48.406;10.820;2023-08-30T09:19:21;4.40;;;4.00;;
11191;SDS011;5652;48.406;10.820;2023-08-30T09:21:52;5.15;;;4.25;;
11191;SDS011;5652;48.406;10.820;2023-08-30T09:24:21;5.25;;;3.90;;
11191;SDS011;5652;48.406;10.820;2023-08-30T09:26:48;4.95;;;4.00;;
11191;SDS011;5652;48.406;10.820;2023-08-30T09:29:16;5.05;;;4.20;;
11191;SDS011;5652;48.406;10.820;2023-08-30T09:31:43;4.53;;;3.80;;
11191;SDS011;5652;48.406;10.820;2023-08-30T09:34:11;4.72;;;4.18;;
11191;SDS011;5652;48.406;10.820;2023-08-30T09:36:39;4.77;;;4.07;;
11191;SDS011;5652;48.406;10.820;2023-08-30T09:39:07;4.60;;;3.70;;
11191;SDS011;5652;48.406;10.820;2023-08-30T09:41:35;4.40;;;3.87;;
11191;SDS011;5652;48.406;10.820;2023-08-30T09:44:06;4.60;;;3.60;;
11191;SDS011;5652;48.406;10.820;2023-08-30T09:46:39;3.70;;;3.40;;
11191;SDS011;5652;48.406;10.820;2023-08-30T09:49:07;3.50;;;3.20;;
11191;SDS011;5652;48.406;10.820;2023-08-30T09:51:35;4.07;;;3.42;;
11191;SDS011;5652;48.406;10.820;2023-08-30T09:54:03;3.92;;;3.42;;
11191;SDS011;5652;48.406;10.820;2023-08-30T09:56:31;5.72;;;3.08;;
11191;SDS011;5652;48.406;10.820;2023-08-30T09:59:01;3.58;;;3.20;;
11191;SDS011;5652;48.406;10.820;2023-08-30T10:01:29;3.40;;;3.00;;
11191;SDS011;5652;48.406;10.820;2023-08-30T10:03:56;3.63;;;2.90;;
11191;SDS011;5652;48.406;10.820;2023-08-30T10:06:32;3.80;;;3.00;;
11191;SDS011;5652;48.406;10.820;2023-08-30T10:08:59;3.42;;;2.97;;
11191;SDS011;5652;48.406;10.820;2023-08-30T10:11:28;3.25;;;2.83;;
11191;SDS011;5652;48.406;10.820;2023-08-30T10:13:56;3.20;;;2.80;;
11191;SDS011;5652;48.406;10.820;2023-08-30T10:16:26;3.70;;;2.80;;
11191;SDS011;5652;48.406;10.820;2023-08-30T10:18:54;3.20;;;2.90;;
11191;SDS011;5652;48.406;10.820;2023-08-30T10:21:26;2.90;;;2.53;;
11191;SDS011;5652;48.406;10.820;2023-08-30T10:23:54;2.20;;;2.00;;
11191;SDS011;5652;48.406;10.820;2023-08-30T10:26:22;2.50;;;1.80;;
11191;SDS011;5652;48.406;10.820;2023-08-30T10:28:50;3.22;;;2.00;;
11191;SDS011;5652;48.406;10.820;2023-08-30T10:31:18;2.13;;;1.92;;
11191;SDS011;5652;48.406;10.820;2023-08-30T10:33:50;2.33;;;2.13;;
11191;SDS011;5652;48.406;10.820;2023-08-30T10:36:20;2.10;;;1.90;;
11191;SDS011;5652;48.406;10.820;2023-08-30T10:38:48;2.08;;;1.60;;
11191;SDS011;5652;48.406;10.820;2023-08-30T10:41:19;2.10;;;1.90;;
11191;SDS011;5652;48.406;10.820;2023-08-30T10:43:49;2.10;;;1.90;;
11191;SDS011;5652;48.406;10.820;2023-08-30T10:46:17;2.00;;;1.80;;
11191;SDS011;5652;48.406;10.820;2023-08-30T10:48:44;2.85;;;1.98;;
11191;SDS011;5652;48.406;10.820;2023-08-30T10:51:21;1.92;;;1.75;;
11191;SDS011;5652;48.406;10.820;2023-08-30T10:53:57;2.78;;;2.28;;
11191;SDS011;5652;48.406;10.820;2023-08-30T10:56:28;2.53;;;2.00;;
11191;SDS011;5652;48.406;10.820;2023-08-30T10:58:56;3.03;;;1.95;;
11191;SDS011;5652;48.406;10.820;2023-08-30T11:01:23;2.42;;;2.08;;
11191;SDS011;5652;48.406;10.820;2023-08-30T11:03:50;2.53;;;2.10;;
11191;SDS011;5652;48.406;10.820;2023-08-30T11:06:17;2.60;;;2.40;;
11191;SDS011;5652;48.406;10.820;2023-08-30T11:08:46;4.47;;;2.17;;
11191;SDS011;5652;48.406;10.820;2023-08-30T11:11:14;2.75;;;2.47;;
11191;SDS011;5652;48.406;10.820;2023-08-30T11:13:42;4.18;;;2.75;;
11191;SDS011;5652;48.406;10.820;2023-08-30T11:16:09;3.27;;;2.37;;
11191;SDS011;5652;48.406;10.820;2023-08-30T11:18:37;2.77;;;2.47;;
11191;SDS011;5652;48.406;10.820;2023-08-30T11:21:06;2.30;;;2.10;;
11191;SDS011;5652;48.406;10.820;2023-08-30T11:23:34;2.88;;;1.85;;
11191;SDS011;5652;48.406;10.820;2023-08-30T11:26:03;3.10;;;2.07;;
11191;SDS011;5652;48.406;10.820;2023-08-30T11:28:32;3.30;;;2.15;;
11191;SDS011;5652;48.406;10.820;2023-08-30T11:31:00;2.50;;;2.00;;
11191;SDS011;5652;48.406;10.820;2023-08-30T11:33:27;2.13;;;1.92;;
11191;SDS011;5652;48.406;10.820;2023-08-30T11:35:54;2.50;;;2.00;;
11191;SDS011;5652;48.406;10.820;2023-08-30T11:38:21;1.98;;;1.77;;
11191;SDS011;5652;48.406;10.820;2023-08-30T11:40:49;1.95;;;1.70;;
11191;SDS011;5652;48.406;10.820;2023-08-30T11:43:18;1.50;;;1.40;;
11191;SDS011;5652;48.406;10.820;2023-08-30T11:45:46;2.20;;;1.52;;
11191;SDS011;5652;48.406;10.820;2023-08-30T11:48:13;2.20;;;1.50;;
11191;SDS011;5652;48.406;10.820;2023-08-30T11:50:41;2.45;;;1.63;;
11191;SDS011;5652;48.406;10.820;2023-08-30T11:53:09;2.33;;;1.70;;
11191;SDS011;5652;48.406;10.820;2023-08-30T11:55:37;3.20;;;2.13;;
11191;SDS011;5652;48.406;10.820;2023-08-30T11:58:04;2.60;;;1.70;;
11191;SDS011;5652;48.406;10.820;2023-08-30T12:00:33;1.88;;;1.58;;
11191;SDS011;5652;48.406;10.820;2023-08-30T12:03:03;2.13;;;1.80;;
11191;SDS011;5652;48.406;10.820;2023-08-30T12:05:32;2.47;;;1.50;;
11191;SDS011;5652;48.406;10.820;2023-08-30T12:08:01;1.50;;;1.30;;
11191;SDS011;5652;48.406;10.820;2023-08-30T12:10:29;2.00;;;1.60;;
11191;SDS011;5652;48.406;10.820;2023-08-30T12:12:57;2.00;;;1.52;;
11191;SDS011;5652;48.406;10.820;2023-08-30T12:15:24;1.70;;;1.48;;
11191;SDS011;5652;48.406;10.820;2023-08-30T12:17:54;2.00;;;1.63;;
11191;SDS011;5652;48.406;10.820;2023-08-30T12:20:21;2.58;;;1.60;;
11191;SDS011;5652;48.406;10.820;2023-08-30T12:22:49;2.35;;;1.45;;
11191;SDS011;5652;48.406;10.820;2023-08-30T12:25:18;1.90;;;1.40;;
11191;SDS011;5652;48.406;10.820;2023-08-30T12:27:46;1.77;;;1.50;;
11191;SDS011;5652;48.406;10.820;2023-08-30T12:30:13;2.22;;;1.65;;
11191;SDS011;5652;48.406;10.820;2023-08-30T12:32:41;1.98;;;1.40;;
11191;SDS011;5652;48.406;10.820;2023-08-30T12:35:10;2.00;;;1.40;;
11191;SDS011;5652;48.406;10.820;2023-08-30T12:37:37;1.45;;;1.30;;
11191;SDS011;5652;48.406;10.820;2023-08-30T12:40:05;2.97;;;1.40;;
11191;SDS011;5652;48.406;10.820;2023-08-30T12:42:32;1.92;;;1.55;;
11191;SDS011;5652;48.406;10.820;2023-08-30T12:44:59;1.90;;;1.50;;
11191;SDS011;5652;48.406;10.820;2023-08-30T12:47:28;2.47;;;1.50;;
11191;SDS011;5652;48.406;10.820;2023-08-30T12:49:56;1.85;;;1.60;;
11191;SDS011;5652;48.406;10.820;2023-08-30T12:52:24;2.42;;;1.52;;
11191;SDS011;5652;48.406;10.820;2023-08-30T12:54:52;2.00;;;1.60;;
11191;SDS011;5652;48.406;10.820;2023-08-30T12:57:19;2.40;;;1.60;;
11191;SDS011;5652;48.406;10.820;2023-08-30T12:59:46;3.47;;;1.50;;
11191;SDS011;5652;48.406;10.820;2023-08-30T13:02:13;2.30;;;1.40;;
11191;SDS011;5652;48.406;10.820;2023-08-30T13:04:40;2.55;;;1.30;;
11191;SDS011;5652;48.406;10.820;2023-08-30T13:07:13;1.50;;;1.27;;
11191;SDS011;5652;48.406;10.820;2023-08-30T13:09:42;2.03;;;1.40;;
11191;SDS011;5652;48.406;10.820;2023-08-30T13:12:09;1.40;;;1.30;;
11191;SDS011;5652;48.406;10.820;2023-08-30T13:14:36;1.33;;;1.15;;
11191;SDS011;5652;48.406;10.820;2023-08-30T13:17:03;1.75;;;1.40;;
11191;SDS011;5652;48.406;10.820;2023-08-30T13:19:31;2.53;;;1.40;;
11191;SDS011;5652;48.406;10.820;2023-08-30T13:21:58;2.27;;;1.30;;
11191;SDS011;5652;48.406;10.820;2023-08-30T13:24:25;2.17;;;1.47;;
11191;SDS011;5652;48.406;10.820;2023-08-30T13:26:54;1.67;;;1.35;;
11191;SDS011;5652;48.406;10.820;2023-08-30T13:29:21;1.40;;;1.20;;
11191;SDS011;5652;48.406;10.820;2023-08-30T13:31:48;1.40;;;1.17;;
11191;SDS011;5652;48.406;10.820;2023-08-30T13:34:16;1.30;;;1.17;;
11191;SDS011;5652;48.406;10.820;2023-08-30T13:36:43;1.33;;;1.20;;
11191;SDS011;5652;48.406;10.820;2023-08-30T13:39:11;1.20;;;1.10;;
11191;SDS011;5652;48.406;10.820;2023-08-30T13:41:38;1.27;;;1.17;;
11191;SDS011;5652;48.406;10.820;2023-08-30T13:44:06;1.50;;;1.30;;
11191;SDS011;5652;48.406;10.820;2023-08-30T13:46:34;1.30;;;1.20;;
11191;SDS011;5652;48.406;10.820;2023-08-30T13:49:01;1.67;;;1.20;;
11191;SDS011;5652;48.406;10.820;2023-08-30T13:51:28;1.60;;;1.15;;
11191;SDS011;5652;48.406;10.820;2023-08-30T13:53:55;1.48;;;1.38;;
11191;SDS011;5652;48.406;10.820;2023-08-30T13:56:23;1.52;;;1.20;;
11191;SDS011;5652;48.406;10.820;2023-08-30T13:58:50;1.35;;;1.23;;
11191;SDS011;5652;48.406;10.820;2023-08-30T14:01:19;2.45;;;1.27;;
11191;SDS011;5652;48.406;10.820;2023-08-30T14:03:46;1.42;;;1.20;;
11191;SDS011;5652;48.406;10.820;2023-08-30T14:09:06;2.40;;;1.30;;
11191;SDS011;5652;48.406;10.820;2023-08-30T14:11:34;1.83;;;1.30;;
11191;SDS011;5652;48.406;10.820;2023-08-30T14:14:03;1.40;;;1.20;;
11191;SDS011;5652;48.406;10.820;2023-08-30T14:16:35;2.55;;;1.42;;
11191;SDS011;5652;48.406;10.820;2023-08-30T14:19:03;1.90;;;1.48;;
11191;SDS011;5652;48.406;10.820;2023-08-30T14:21:31;2.72;;;1.50;;
11191;SDS011;5652;48.406;10.820;2023-08-30T14:23:58;2.20;;;1.40;;
11191;SDS011;5652;48.406;10.820;2023-08-30T14:26:26;1.60;;;1.45;;
11191;SDS011;5652;48.406;10.820;2023-08-30T14:28:53;1.90;;;1.65;;
11191;SDS011;5652;48.406;10.820;2023-08-30T14:31:20;1.90;;;1.40;;
11191;SDS011;5652;48.406;10.820;2023-08-30T14:33:49;1.60;;;1.50;;
11191;SDS011;5652;48.406;10.820;2023-08-30T14:36:16;2.50;;;1.83;;
11191;SDS011;5652;48.406;10.820;2023-08-30T14:38:43;1.60;;;1.50;;
11191;SDS011;5652;48.406;10.820;2023-08-30T14:41:10;1.95;;;1.50;;